CDT,Max TemperatureF,Mean TemperatureF,Min TemperatureF,Max Dew PointF,MeanDew PointF,Min DewpointF,Max Humidity, Mean Humidity, Min Humidity, Max Sea Level PressureIn, Mean Sea Level PressureIn, Min Sea Level PressureIn, Max VisibilityMiles, Mean VisibilityMiles, Min VisibilityMiles, Max Wind SpeedMPH, Mean Wind SpeedMPH, Max Gust SpeedMPH,PrecipitationIn, CloudCover, Events, WindDirDegrees
2012-9-1,90,79,68,70,68,67,90,70,50,29.96,29.90,29.86,10,10,10,23,11,29,T,3,Rain,347
2012-9-2,93,78,62,67,64,61,100,70,39,29.98,29.93,29.85,10,6,0,7,1,10,0.00,0,Fog,73
2012-9-3,100,85,69,72,69,66,90,65,39,29.88,29.85,29.77,10,10,10,28,8,37,0.00,0,Thunderstorm,95
2012-9-4,98,84,70,72,68,63,87,61,35,29.87,29.82,29.74,10,10,9,13,3,17,T,0,Rain-Thunderstorm,130
2012-9-5,94,81,68,69,64,59,73,57,41,29.89,29.81,29.75,10,10,10,18,6,24,0.00,0,,298
2012-9-6,94,80,65,68,62,57,78,57,36,29.97,29.88,29.78,10,10,10,13,5,17,0.00,0,,99
2012-9-7,84,70,55,68,62,53,84,69,54,30.08,29.90,29.76,10,10,4,24,8,36,0.16,2,Rain-Thunderstorm,313
2012-9-8,81,66,51,54,49,42,89,58,26,30.19,30.10,30.01,10,10,10,16,5,23,0.00,0,,296
2012-9-9,78,66,53,52,49,46,83,60,36,30.21,30.13,30.01,10,10,10,17,4,22,0.00,0,,1
2012-9-10,85,67,49,54,50,46,100,65,29,30.17,30.10,29.99,10,8,0,16,6,24,0.00,0,Fog,158
2012-9-11,92,76,59,56,51,47,72,47,21,30.01,29.96,29.90,10,10,10,23,10,30,0.00,0,,166
2012-9-12,90,74,58,62,57,50,61,50,38,30.14,29.97,29.93,10,10,10,24,12,33,0.01,1,Rain,146
2012-9-13,60,58,56,55,53,50,93,85,77,30.40,30.29,30.12,10,10,4,24,10,31,0.29,8,Rain-Thunderstorm,18
2012-9-14,71,61,50,53,49,41,96,66,35,30.41,30.36,30.29,10,10,9,14,5,17,0.00,1,,23
2012-9-15,75,61,47,62,54,46,96,81,66,30.30,30.21,30.11,10,10,2,8,3,9,0.00,6,,105
2012-9-16,75,68,61,63,61,59,97,81,64,30.10,30.03,29.95,10,9,5,9,3,12,0.00,7,,124
2012-9-17,81,65,48,63,58,49,100,76,51,30.04,29.93,29.86,10,6,0,25,4,35,T,5,Fog-Rain-Thunderstorm,18
2012-9-18,72,59,45,48,43,36,93,61,29,30.14,30.07,30.01,10,8,0,10,3,14,0.00,0,Fog,164
2012-9-19,86,70,54,55,49,45,77,54,30,30.00,29.92,29.82,10,10,10,17,7,25,0.00,0,,189
2012-9-20,79,63,46,49,43,36,86,54,21,30.06,30.01,29.96,10,10,10,12,2,16,0.00,0,,19
2012-9-21,83,67,50,50,42,32,86,52,17,29.96,29.90,29.86,10,10,10,26,7,33,0.00,0,,297
2012-9-22,70,57,43,44,34,22,86,51,16,30.30,30.17,29.96,10,10,8,18,6,24,0.00,0,,357
2012-9-23,73,54,35,41,35,30,85,54,22,30.35,30.28,30.21,10,10,9,12,3,17,0.00,0,,98
2012-9-24,80,64,47,58,48,39,77,58,39,30.20,29.99,29.77,10,10,10,15,6,20,0.00,0,,107
2012-9-25,82,71,60,66,61,58,90,71,51,29.86,29.79,29.75,10,10,10,15,3,29,T,1,Rain-Thunderstorm,248
2012-9-26,73,67,61,64,62,60,93,81,68,30.11,29.98,29.86,10,10,5,14,4,18,0.12,5,Rain-Thunderstorm,251
2012-9-27,76,66,56,61,58,53,100,73,46,30.17,30.13,30.09,10,5,0,10,3,13,0.00,3,Fog,26
2012-9-28,73,61,49,59,54,48,100,75,49,30.20,30.14,30.10,10,5,0,10,3,13,0.00,2,Fog,62
2012-9-29,78,61,43,50,45,40,100,63,26,30.18,30.13,30.04,10,6,0,13,2,16,0.00,1,Fog,54
2012-9-30,78,63,48,53,49,44,86,58,30,30.04,29.97,29.90,10,10,10,7,1,13,0.00,0,,280